PWSweather.com
Personal Weather Stations
Station Observations
RODOLIVOS
Serres, Rodolivos SerresGR 62041

SerresRodolivos SerresGR 62041

Lat: 40.920725, Lon: 23.975814

Elevation: 1161

Station Type: Davis Vantage Vue

http://rodolivos-weather.gr/

High Low Average
Temperature 89.0°F31.7°C 70.4°F21.3°C 82.4°F28.0°C
Dew Point 64.1°F17.8°C 48.5°F9.2°C 58.2°F14.6°C
Winds 6.9 mph 11.1 kmh Calm Calm 2.0 mph SE3.2 kmh SE
Wind Gusts 12.7 mph20.4 kmh -- 5.0 mph8.0 kmh
Humidity 62% 35% 44%
Pressure 29.97 in1014.9 mb 29.89 in1012.2 mb -
Precipitation 0.00 in0.0 mm - -
Hour Temp Dew Point Humidity Winds Wind Gusts Pressure Precip Precip Rate Daily Precip Total
05:50 AM 71.6°F22.0°C 56.5°F13.6°C 59% 2.3 mph NE3.7 kmh NE 3.5 mph5.6 kmh 29.95 in1014.2 mb - 0.00 in0.0 mm 0.00 in0.0 mm
06:00 AM 70.4°F21.3°C 56.8°F13.8°C 62% Calm Calm 1.2 mph1.9 kmh 29.95 in1014.2 mb - 0.00 in0.0 mm 0.00 in0.0 mm
06:10 AM 70.5°F21.4°C 56.8°F13.8°C 62% Calm Calm -- 29.95 in1014.2 mb - 0.00 in0.0 mm 0.00 in0.0 mm
06:20 AM 71.4°F21.9°C 56.8°F13.8°C 60% 1.2 mph NE1.9 kmh NE 2.3 mph3.7 kmh 29.95 in1014.2 mb - 0.00 in0.0 mm 0.00 in0.0 mm
06:30 AM 72.8°F22.7°C 56.7°F13.7°C 57% 1.2 mph NE1.9 kmh NE 3.5 mph5.6 kmh 29.95 in1014.2 mb - 0.00 in0.0 mm 0.00 in0.0 mm
06:40 AM 74.1°F23.4°C 56.9°F13.8°C 55% 2.3 mph NE3.7 kmh NE 3.5 mph5.6 kmh 29.95 in1014.2 mb - 0.00 in0.0 mm 0.00 in0.0 mm
06:50 AM 75.0°F23.9°C 57.7°F14.3°C 55% 2.3 mph NE3.7 kmh NE 4.6 mph7.4 kmh 29.96 in1014.6 mb - 0.00 in0.0 mm 0.00 in0.0 mm
07:00 AM 75.6°F24.2°C 57.8°F14.3°C 54% 2.3 mph NE3.7 kmh NE 3.5 mph5.6 kmh 29.96 in1014.6 mb - 0.00 in0.0 mm 0.00 in0.0 mm
07:10 AM 76.5°F24.7°C 58.1°F14.5°C 53% 2.3 mph NE3.7 kmh NE 3.5 mph5.6 kmh 29.96 in1014.6 mb - 0.00 in0.0 mm 0.00 in0.0 mm
07:20 AM 77.4°F25.2°C 57.9°F14.4°C 51% 2.3 mph NE3.7 kmh NE 4.6 mph7.4 kmh 29.96 in1014.6 mb - 0.00 in0.0 mm 0.00 in0.0 mm
07:30 AM 78.0°F25.6°C 58.4°F14.7°C 51% 1.2 mph ENE1.9 kmh ENE 2.3 mph3.7 kmh 29.96 in1014.6 mb - 0.00 in0.0 mm 0.00 in0.0 mm
07:40 AM 78.5°F25.8°C 58.4°F14.7°C 50% 2.3 mph E3.7 kmh E 6.9 mph11.1 kmh 29.96 in1014.6 mb - 0.00 in0.0 mm 0.00 in0.0 mm
08:00 AM 79.6°F26.4°C 58.2°F14.6°C 48% 3.5 mph N5.6 kmh N 5.8 mph9.3 kmh 29.96 in1014.6 mb - 0.00 in0.0 mm 0.00 in0.0 mm
08:10 AM 79.6°F26.4°C 57.6°F14.2°C 47% 2.3 mph NNE3.7 kmh NNE 3.5 mph5.6 kmh 29.97 in1014.9 mb - 0.00 in0.0 mm 0.00 in0.0 mm
08:20 AM 79.7°F26.5°C 57.7°F14.3°C 47% 3.5 mph NNE5.6 kmh NNE 6.9 mph11.1 kmh 29.97 in1014.9 mb - 0.00 in0.0 mm 0.00 in0.0 mm
08:30 AM 80.1°F26.7°C 58.0°F14.4°C 47% 2.3 mph NNE3.7 kmh NNE 3.5 mph5.6 kmh 29.96 in1014.6 mb - 0.00 in0.0 mm 0.00 in0.0 mm
08:40 AM 80.5°F26.9°C 57.8°F14.3°C 46% 2.3 mph NE3.7 kmh NE 5.8 mph9.3 kmh 29.96 in1014.6 mb - 0.00 in0.0 mm 0.00 in0.0 mm
08:50 AM 81.0°F27.2°C 57.7°F14.3°C 45% 3.5 mph NNE5.6 kmh NNE 6.9 mph11.1 kmh 29.97 in1014.9 mb - 0.00 in0.0 mm 0.00 in0.0 mm
09:00 AM 81.7°F27.6°C 58.2°F14.6°C 45% 2.3 mph N3.7 kmh N 4.6 mph7.4 kmh 29.97 in1014.9 mb - 0.00 in0.0 mm 0.00 in0.0 mm
09:10 AM 82.1°F27.8°C 58.0°F14.4°C 44% 1.2 mph NE1.9 kmh NE 3.5 mph5.6 kmh 29.97 in1014.9 mb - 0.00 in0.0 mm 0.00 in0.0 mm
09:20 AM 82.0°F27.8°C 58.5°F14.7°C 45% 1.2 mph NE1.9 kmh NE 4.6 mph7.4 kmh 29.97 in1014.9 mb - 0.00 in0.0 mm 0.00 in0.0 mm
09:30 AM 82.6°F28.1°C 57.8°F14.3°C 43% 2.3 mph E3.7 kmh E 3.5 mph5.6 kmh 29.97 in1014.9 mb - 0.00 in0.0 mm 0.00 in0.0 mm
09:40 AM 82.4°F28.0°C 58.3°F14.6°C 44% 1.2 mph NE1.9 kmh NE 4.6 mph7.4 kmh 29.97 in1014.9 mb - 0.00 in0.0 mm 0.00 in0.0 mm
09:50 AM 83.3°F28.5°C 57.8°F14.3°C 42% 2.3 mph NE3.7 kmh NE 4.6 mph7.4 kmh 29.96 in1014.6 mb - 0.00 in0.0 mm 0.00 in0.0 mm
10:00 AM 84.0°F28.9°C 57.1°F13.9°C 40% 1.2 mph NE1.9 kmh NE 2.3 mph3.7 kmh 29.96 in1014.6 mb - 0.00 in0.0 mm 0.00 in0.0 mm
10:10 AM 83.2°F28.4°C 57.7°F14.3°C 42% 2.3 mph NNE3.7 kmh NNE 3.5 mph5.6 kmh 29.96 in1014.6 mb - 0.00 in0.0 mm 0.00 in0.0 mm
10:20 AM 83.6°F28.7°C 56.7°F13.7°C 40% 1.2 mph N1.9 kmh N 2.3 mph3.7 kmh 29.96 in1014.6 mb - 0.00 in0.0 mm 0.00 in0.0 mm
10:30 AM 83.9°F28.8°C 57.0°F13.9°C 40% 1.2 mph NNE1.9 kmh NNE 2.3 mph3.7 kmh 29.96 in1014.6 mb - 0.00 in0.0 mm 0.00 in0.0 mm
10:40 AM 84.5°F29.2°C 57.5°F14.2°C 40% 4.6 mph N7.4 kmh N 9.2 mph14.8 kmh 29.96 in1014.6 mb - 0.00 in0.0 mm 0.00 in0.0 mm
10:50 AM 84.5°F29.2°C 57.5°F14.2°C 40% 4.6 mph NE7.4 kmh NE 5.8 mph9.3 kmh 29.96 in1014.6 mb - 0.00 in0.0 mm 0.00 in0.0 mm
11:00 AM 84.4°F29.1°C 58.1°F14.5°C 41% 3.5 mph NE5.6 kmh NE 6.9 mph11.1 kmh 29.95 in1014.2 mb - 0.00 in0.0 mm 0.00 in0.0 mm
11:10 AM 84.9°F29.4°C 57.2°F14.0°C 39% 1.2 mph NNE1.9 kmh NNE 3.5 mph5.6 kmh 29.95 in1014.2 mb - 0.00 in0.0 mm 0.00 in0.0 mm
11:20 AM 85.4°F29.7°C 58.3°F14.6°C 40% 5.8 mph ENE9.3 kmh ENE 10.4 mph16.7 kmh 29.95 in1014.2 mb - 0.00 in0.0 mm 0.00 in0.0 mm
11:30 AM 84.9°F29.4°C 57.9°F14.4°C 40% 1.2 mph N1.9 kmh N 3.5 mph5.6 kmh 29.95 in1014.2 mb - 0.00 in0.0 mm 0.00 in0.0 mm
11:40 AM 86.9°F30.5°C 58.2°F14.6°C 38% 1.2 mph NE1.9 kmh NE 2.3 mph3.7 kmh 29.95 in1014.2 mb - 0.00 in0.0 mm 0.00 in0.0 mm
11:50 AM 87.0°F30.6°C 63.8°F17.7°C 46% 3.5 mph ESE5.6 kmh ESE 6.9 mph11.1 kmh 29.95 in1014.2 mb - 0.00 in0.0 mm 0.00 in0.0 mm
12:00 PM 85.4°F29.7°C 58.4°F14.7°C 40% 1.2 mph NNW1.9 kmh NNW 3.5 mph5.6 kmh 29.95 in1014.2 mb - 0.00 in0.0 mm 0.00 in0.0 mm
12:10 PM 86.1°F30.1°C 62.9°F17.2°C 46% 1.2 mph NW1.9 kmh NW 2.3 mph3.7 kmh 29.94 in1013.9 mb - 0.00 in0.0 mm 0.00 in0.0 mm
12:20 PM 85.8°F29.9°C 63.3°F17.4°C 47% 2.3 mph NE3.7 kmh NE 3.5 mph5.6 kmh 29.94 in1013.9 mb - 0.00 in0.0 mm 0.00 in0.0 mm
12:30 PM 86.3°F30.2°C 63.1°F17.3°C 46% 4.6 mph WSW7.4 kmh WSW 9.2 mph14.8 kmh 29.94 in1013.9 mb - 0.00 in0.0 mm 0.00 in0.0 mm
12:40 PM 85.8°F29.9°C 62.6°F17.0°C 46% 3.5 mph NW5.6 kmh NW 3.5 mph5.6 kmh 29.94 in1013.9 mb - 0.00 in0.0 mm 0.00 in0.0 mm
12:50 PM 86.9°F30.5°C 63.0°F17.2°C 45% 2.3 mph E3.7 kmh E 4.6 mph7.4 kmh 29.93 in1013.5 mb - 0.00 in0.0 mm 0.00 in0.0 mm
01:00 PM 85.8°F29.9°C 62.6°F17.0°C 46% 2.3 mph SE3.7 kmh SE 3.5 mph5.6 kmh 29.93 in1013.5 mb - 0.00 in0.0 mm 0.00 in0.0 mm
01:10 PM 86.3°F30.2°C 63.1°F17.3°C 46% 4.6 mph SSE7.4 kmh SSE 6.9 mph11.1 kmh 29.93 in1013.5 mb - 0.00 in0.0 mm 0.00 in0.0 mm
01:20 PM 86.6°F30.3°C 63.9°F17.7°C 47% 3.5 mph WNW5.6 kmh WNW 5.8 mph9.3 kmh 29.93 in1013.5 mb - 0.00 in0.0 mm 0.00 in0.0 mm
01:30 PM 86.4°F30.2°C 63.7°F17.6°C 47% 6.9 mph S11.1 kmh S 10.4 mph16.7 kmh 29.93 in1013.5 mb - 0.00 in0.0 mm 0.00 in0.0 mm
01:40 PM 86.1°F30.1°C 64.1°F17.8°C 48% 4.6 mph SSW7.4 kmh SSW 8.1 mph13.0 kmh 29.93 in1013.5 mb - 0.00 in0.0 mm 0.00 in0.0 mm
01:50 PM 86.7°F30.4°C 63.4°F17.4°C 46% 3.5 mph SSE5.6 kmh SSE 3.5 mph5.6 kmh 29.93 in1013.5 mb - 0.00 in0.0 mm 0.00 in0.0 mm
02:00 PM 86.3°F30.2°C 62.4°F16.9°C 45% 1.2 mph SSE1.9 kmh SSE 3.5 mph5.6 kmh 29.92 in1013.2 mb - 0.00 in0.0 mm 0.00 in0.0 mm
02:10 PM 87.3°F30.7°C 62.7°F17.1°C 44% 3.5 mph S5.6 kmh S 5.8 mph9.3 kmh 29.92 in1013.2 mb - 0.00 in0.0 mm 0.00 in0.0 mm
02:20 PM 88.3°F31.3°C 62.9°F17.2°C 43% 2.3 mph SSW3.7 kmh SSW 5.8 mph9.3 kmh 29.91 in1012.9 mb - 0.00 in0.0 mm 0.00 in0.0 mm
02:30 PM 89.0°F31.7°C 62.3°F16.8°C 41% 2.3 mph S3.7 kmh S 5.8 mph9.3 kmh 29.91 in1012.9 mb - 0.00 in0.0 mm 0.00 in0.0 mm
02:40 PM 88.9°F31.6°C 62.2°F16.8°C 41% 3.5 mph NNE5.6 kmh NNE 4.6 mph7.4 kmh 29.91 in1012.9 mb - 0.00 in0.0 mm 0.00 in0.0 mm
02:50 PM 87.5°F30.8°C 61.6°F16.4°C 42% 5.8 mph WSW9.3 kmh WSW 11.5 mph18.5 kmh 29.91 in1012.9 mb - 0.00 in0.0 mm 0.00 in0.0 mm
03:00 PM 87.8°F31.0°C 61.2°F16.2°C 41% 3.5 mph NNW5.6 kmh NNW 3.5 mph5.6 kmh 29.90 in1012.5 mb - 0.00 in0.0 mm 0.00 in0.0 mm
03:10 PM 87.8°F31.0°C 60.5°F15.8°C 40% 1.2 mph S1.9 kmh S 3.5 mph5.6 kmh 29.90 in1012.5 mb - 0.00 in0.0 mm 0.00 in0.0 mm
03:20 PM 88.1°F31.2°C 60.7°F15.9°C 40% 3.5 mph SW5.6 kmh SW 9.2 mph14.8 kmh 29.90 in1012.5 mb - 0.00 in0.0 mm 0.00 in0.0 mm
03:30 PM 87.6°F30.9°C 60.3°F15.7°C 40% 4.6 mph NW7.4 kmh NW 8.1 mph13.0 kmh 29.90 in1012.5 mb - 0.00 in0.0 mm 0.00 in0.0 mm
03:40 PM 86.9°F30.5°C 60.4°F15.8°C 41% 4.6 mph W7.4 kmh W 12.7 mph20.4 kmh 29.90 in1012.5 mb - 0.00 in0.0 mm 0.00 in0.0 mm
03:50 PM 86.1°F30.1°C 61.0°F16.1°C 43% 3.5 mph SW5.6 kmh SW 6.9 mph11.1 kmh 29.90 in1012.5 mb - 0.00 in0.0 mm 0.00 in0.0 mm
04:00 PM 86.5°F30.3°C 61.3°F16.3°C 43% 2.3 mph NW3.7 kmh NW 4.6 mph7.4 kmh 29.90 in1012.5 mb - 0.00 in0.0 mm 0.00 in0.0 mm
04:10 PM 86.4°F30.2°C 60.6°F15.9°C 42% 2.3 mph NW3.7 kmh NW 9.2 mph14.8 kmh 29.89 in1012.2 mb - 0.00 in0.0 mm 0.00 in0.0 mm
04:20 PM 86.5°F30.3°C 60.0°F15.6°C 41% 2.3 mph S3.7 kmh S 5.8 mph9.3 kmh 29.89 in1012.2 mb - 0.00 in0.0 mm 0.00 in0.0 mm
04:30 PM 86.6°F30.3°C 59.4°F15.2°C 40% 1.2 mph NNE1.9 kmh NNE 3.5 mph5.6 kmh 29.89 in1012.2 mb - 0.00 in0.0 mm 0.00 in0.0 mm
04:40 PM 86.3°F30.2°C 59.8°F15.4°C 41% 2.3 mph NW3.7 kmh NW 5.8 mph9.3 kmh 29.89 in1012.2 mb - 0.00 in0.0 mm 0.00 in0.0 mm
04:50 PM 86.6°F30.3°C 59.4°F15.2°C 40% 1.2 mph SSE1.9 kmh SSE 1.2 mph1.9 kmh 29.89 in1012.2 mb - 0.00 in0.0 mm 0.00 in0.0 mm
05:00 PM 86.7°F30.4°C 60.2°F15.7°C 41% 4.6 mph NW7.4 kmh NW 8.1 mph13.0 kmh 29.89 in1012.2 mb - 0.00 in0.0 mm 0.00 in0.0 mm
05:10 PM 85.7°F29.8°C 58.6°F14.8°C 40% 2.3 mph NW3.7 kmh NW 6.9 mph11.1 kmh 29.89 in1012.2 mb - 0.00 in0.0 mm 0.00 in0.0 mm
05:20 PM 84.9°F29.4°C 58.6°F14.8°C 41% 1.2 mph N1.9 kmh N 1.2 mph1.9 kmh 29.89 in1012.2 mb - 0.00 in0.0 mm 0.00 in0.0 mm
05:30 PM 85.1°F29.5°C 59.4°F15.2°C 42% 1.2 mph WSW1.9 kmh WSW 3.5 mph5.6 kmh 29.89 in1012.2 mb - 0.00 in0.0 mm 0.00 in0.0 mm
05:40 PM 84.8°F29.3°C 59.2°F15.1°C 42% 1.2 mph NW1.9 kmh NW 3.5 mph5.6 kmh 29.89 in1012.2 mb - 0.00 in0.0 mm 0.00 in0.0 mm
05:50 PM 84.3°F29.1°C 60.0°F15.6°C 44% 1.2 mph N1.9 kmh N 3.5 mph5.6 kmh 29.89 in1012.2 mb - 0.00 in0.0 mm 0.00 in0.0 mm
06:00 PM 83.7°F28.7°C 59.5°F15.3°C 44% 1.2 mph N1.9 kmh N 3.5 mph5.6 kmh 29.89 in1012.2 mb - 0.00 in0.0 mm 0.00 in0.0 mm
06:10 PM 83.7°F28.7°C 59.5°F15.3°C 44% 1.2 mph NNW1.9 kmh NNW 2.3 mph3.7 kmh 29.89 in1012.2 mb - 0.00 in0.0 mm 0.00 in0.0 mm
08:10 PM 75.9°F24.4°C 51.8°F11.0°C 43% Calm Calm 2.3 mph3.7 kmh 29.94 in1013.9 mb - 0.00 in0.0 mm 0.00 in0.0 mm
08:20 PM 75.2°F24.0°C 53.0°F11.7°C 46% Calm Calm 1.2 mph1.9 kmh 29.94 in1013.9 mb - 0.00 in0.0 mm 0.00 in0.0 mm
08:30 PM 75.7°F24.3°C 51.6°F10.9°C 43% Calm Calm 1.2 mph1.9 kmh 29.94 in1013.9 mb - 0.00 in0.0 mm 0.00 in0.0 mm
08:40 PM 77.6°F25.3°C 48.5°F9.2°C 36% 3.5 mph NE5.6 kmh NE 10.4 mph16.7 kmh 29.94 in1013.9 mb - 0.00 in0.0 mm 0.00 in0.0 mm
08:50 PM 78.5°F25.8°C 48.5°F9.2°C 35% 3.5 mph NE5.6 kmh NE 4.6 mph7.4 kmh 29.94 in1013.9 mb - 0.00 in0.0 mm 0.00 in0.0 mm
09:00 PM 78.9°F26.1°C 49.0°F9.4°C 35% 4.6 mph E7.4 kmh E 8.1 mph13.0 kmh 29.95 in1014.2 mb - 0.00 in0.0 mm 0.00 in0.0 mm
09:10 PM 79.0°F26.1°C 49.8°F9.9°C 36% 4.6 mph E7.4 kmh E 8.1 mph13.0 kmh 29.95 in1014.2 mb - 0.00 in0.0 mm 0.00 in0.0 mm
09:20 PM 79.3°F26.3°C 50.0°F10.0°C 36% 4.6 mph ENE7.4 kmh ENE 9.2 mph14.8 kmh 29.95 in1014.2 mb - 0.00 in0.0 mm 0.00 in0.0 mm
09:30 PM 79.0°F26.1°C 50.5°F10.3°C 37% 3.5 mph E5.6 kmh E 8.1 mph13.0 kmh 29.95 in1014.2 mb - 0.00 in0.0 mm 0.00 in0.0 mm
09:40 PM 78.6°F25.9°C 50.1°F10.1°C 37% 3.5 mph E5.6 kmh E 4.6 mph7.4 kmh 29.95 in1014.2 mb - 0.00 in0.0 mm 0.00 in0.0 mm
09:50 PM 78.0°F25.6°C 51.0°F10.6°C 39% 1.2 mph NE1.9 kmh NE 2.3 mph3.7 kmh 29.95 in1014.2 mb - 0.00 in0.0 mm 0.00 in0.0 mm
10:00 PM 77.6°F25.3°C 51.4°F10.8°C 40% 2.3 mph NE3.7 kmh NE 3.5 mph5.6 kmh 29.96 in1014.6 mb - 0.00 in0.0 mm 0.00 in0.0 mm
10:10 PM 77.1°F25.1°C 51.6°F10.9°C 41% 1.2 mph N1.9 kmh N 3.5 mph5.6 kmh 29.96 in1014.6 mb - 0.00 in0.0 mm 0.00 in0.0 mm
10:20 PM 76.9°F24.9°C 51.4°F10.8°C 41% 2.3 mph NE3.7 kmh NE 2.3 mph3.7 kmh 29.96 in1014.6 mb - 0.00 in0.0 mm 0.00 in0.0 mm